createdAt,value
2022-08-12T00:00:09.374Z,3.20
2022-08-12T00:02:55.643Z,3.50
2022-08-12T00:05:55.754Z,3.60
2022-08-12T00:08:48.223Z,3.72
2022-08-12T00:11:33.884Z,3.40
2022-08-12T00:14:19.336Z,3.70
2022-08-12T00:17:05.635Z,3.90
2022-08-12T00:19:51.065Z,3.53
2022-08-12T00:22:36.638Z,3.40
2022-08-12T00:25:50.884Z,3.75
2022-08-12T00:28:28.724Z,3.35
2022-08-12T00:31:13.927Z,3.40
2022-08-12T00:33:59.110Z,3.50
2022-08-12T00:39:35.505Z,3.20
2022-08-12T00:42:11.761Z,3.55
2022-08-12T00:44:40.836Z,3.28
2022-08-12T00:47:24.657Z,3.83
2022-08-12T00:49:54.601Z,3.80
2022-08-12T00:52:22.155Z,3.45
2022-08-12T00:54:52.220Z,3.47
2022-08-12T00:57:21.866Z,3.50
2022-08-12T01:00:00.333Z,3.45
2022-08-12T01:02:29.865Z,3.55
2022-08-12T01:05:36.401Z,3.50
2022-08-12T01:08:23.170Z,3.67
2022-08-12T01:13:40.113Z,3.53
2022-08-12T01:16:09.424Z,3.75
2022-08-12T01:18:38.417Z,3.75
2022-08-12T01:21:26.574Z,3.50
2022-08-12T01:23:56.171Z,3.50
2022-08-12T01:26:24.614Z,3.40
2022-08-12T01:28:55.919Z,3.40
2022-08-12T01:31:26.523Z,3.65
2022-08-12T01:34:04.760Z,3.35
2022-08-12T01:36:46.379Z,3.50
2022-08-12T01:39:17.738Z,3.40
2022-08-12T01:41:50.537Z,3.50
2022-08-12T01:47:03.884Z,3.30
2022-08-12T01:50:07.686Z,3.35
2022-08-12T01:52:43.479Z,3.05
2022-08-12T01:55:11.334Z,3.42
2022-08-12T01:57:59.437Z,3.47
2022-08-12T02:00:46.039Z,3.70
2022-08-12T02:04:08.093Z,3.50
2022-08-12T02:07:03.372Z,3.60
2022-08-12T02:10:50.314Z,3.38
2022-08-12T02:13:33.197Z,3.50
2022-08-12T02:16:16.102Z,3.50
2022-08-12T02:19:13.723Z,3.60
2022-08-12T02:22:08.449Z,3.38
2022-08-12T02:24:38.471Z,3.60
2022-08-12T02:27:10.154Z,4.05
2022-08-12T02:29:36.741Z,3.92
2022-08-12T02:32:04.722Z,3.97
2022-08-12T02:34:31.763Z,4.22
2022-08-12T02:37:02.447Z,4.07
2022-08-12T02:39:33.671Z,3.80
2022-08-12T02:42:03.819Z,3.20
2022-08-12T02:44:35.654Z,3.53
2022-08-12T02:47:06.439Z,3.65
2022-08-12T02:49:39.936Z,3.40
2022-08-12T02:52:08.169Z,3.55
2022-08-12T02:54:36.182Z,4.00
2022-08-12T02:57:02.968Z,3.95
2022-08-12T02:59:30.338Z,3.63
2022-08-12T03:02:03.246Z,3.58
2022-08-12T03:04:43.804Z,3.70
2022-08-12T03:07:16.622Z,3.70
2022-08-12T03:10:05.252Z,3.67
2022-08-12T03:12:49.255Z,4.20
2022-08-12T03:15:22.524Z,3.92
2022-08-12T03:18:25.423Z,3.60
2022-08-12T03:20:46.111Z,3.95
2022-08-12T03:23:21.582Z,4.00
2022-08-12T03:26:01.766Z,3.60
2022-08-12T03:28:49.978Z,3.78
2022-08-12T03:31:18.769Z,4.18
2022-08-12T03:34:01.713Z,3.90
2022-08-12T03:36:35.011Z,3.92
2022-08-12T03:39:17.262Z,3.95
2022-08-12T03:41:59.296Z,4.00
2022-08-12T03:44:52.364Z,4.18
2022-08-12T03:47:53.659Z,4.18
2022-08-12T03:50:39.175Z,4.55
2022-08-12T03:53:29.272Z,4.22
2022-08-12T03:56:14.845Z,3.67
2022-08-12T03:59:00.496Z,3.97
2022-08-12T04:01:27.609Z,3.90
2022-08-12T04:03:55.071Z,4.40
2022-08-12T04:06:34.456Z,4.07
2022-08-12T04:09:14.821Z,3.90
2022-08-12T04:12:03.799Z,4.07
2022-08-12T04:14:30.946Z,3.88
2022-08-12T04:16:58.218Z,3.80
2022-08-12T04:19:26.424Z,4.28
2022-08-12T04:22:02.018Z,3.92
2022-08-12T04:24:35.231Z,4.32
2022-08-12T04:27:08.710Z,4.07
2022-08-12T04:30:30.213Z,4.00
2022-08-12T04:32:27.136Z,3.95
2022-08-12T04:34:54.006Z,4.32
2022-08-12T04:37:20.923Z,3.88
2022-08-12T04:39:48.677Z,4.13
2022-08-12T04:42:16.130Z,3.50
2022-08-12T04:44:43.334Z,3.78
2022-08-12T04:47:15.268Z,4.05
2022-08-12T04:49:44.677Z,4.05
2022-08-12T04:52:12.070Z,3.70
2022-08-12T04:54:38.757Z,3.83
2022-08-12T04:57:06.042Z,3.70
2022-08-12T04:59:46.839Z,3.67
2022-08-12T05:02:20.898Z,3.83
2022-08-12T05:04:49.991Z,4.50
2022-08-12T05:07:16.573Z,3.85
2022-08-12T05:10:00.504Z,3.70
2022-08-12T05:12:34.688Z,3.75
2022-08-12T05:15:01.815Z,3.40
2022-08-12T05:17:28.671Z,3.20
2022-08-12T05:19:57.281Z,3.05
2022-08-12T05:22:26.286Z,3.40
2022-08-12T05:24:53.400Z,3.05
2022-08-12T05:27:22.973Z,3.30
2022-08-12T05:30:07.906Z,3.20
2022-08-12T05:32:36.624Z,3.25
2022-08-12T05:35:06.619Z,2.97
2022-08-12T05:37:34.873Z,3.20
2022-08-12T05:40:08.286Z,3.10
2022-08-12T05:42:37.872Z,2.92
2022-08-12T05:45:04.966Z,3.03
2022-08-12T05:47:44.900Z,3.10
2022-08-12T05:50:18.376Z,2.90
2022-08-12T05:52:44.899Z,2.97
2022-08-12T05:55:11.686Z,3.15
2022-08-12T05:57:39.006Z,3.08
2022-08-12T06:00:06.702Z,2.90
2022-08-12T06:02:35.048Z,3.00
2022-08-12T06:05:02.693Z,2.92
2022-08-12T06:08:00.504Z,2.70
2022-08-12T06:10:17.692Z,2.90
2022-08-12T06:12:58.902Z,2.90
2022-08-12T06:15:26.150Z,3.00
2022-08-12T06:17:52.992Z,2.90
2022-08-12T06:20:26.634Z,3.30
2022-08-12T06:22:56.740Z,3.00
2022-08-12T06:25:26.926Z,3.05
2022-08-12T06:28:07.333Z,3.00
2022-08-12T06:30:39.151Z,2.90
2022-08-12T06:33:22.307Z,3.08
2022-08-12T06:35:51.319Z,3.10
2022-08-12T06:38:23.213Z,2.80
2022-08-12T06:41:12.795Z,3.05
2022-08-12T06:44:06.574Z,3.03
2022-08-12T06:46:28.664Z,3.17
2022-08-12T06:48:58.913Z,3.28
2022-08-12T06:51:32.333Z,3.00
2022-08-12T06:54:00.791Z,3.03
2022-08-12T06:56:59.714Z,3.17
2022-08-12T06:59:15.951Z,3.00
2022-08-12T07:01:51.240Z,3.38
2022-08-12T07:07:09.993Z,3.05
2022-08-12T07:10:06.819Z,3.05
2022-08-12T07:12:28.761Z,3.00
2022-08-12T07:14:57.516Z,3.20
2022-08-12T07:17:24.118Z,3.50
2022-08-12T07:19:52.060Z,3.30
2022-08-12T07:22:18.823Z,3.10
2022-08-12T07:25:05.526Z,2.95
2022-08-12T07:27:38.661Z,3.00
2022-08-12T07:30:07.371Z,3.28
2022-08-12T07:32:33.894Z,3.03
2022-08-12T07:35:00.469Z,2.75
2022-08-12T07:37:26.994Z,3.00
2022-08-12T07:40:00.261Z,2.80
2022-08-12T07:42:28.733Z,3.00
2022-08-12T07:44:56.473Z,3.10
2022-08-12T07:47:23.881Z,2.90
2022-08-12T07:50:04.183Z,2.90
2022-08-12T07:52:34.050Z,2.90
2022-08-12T07:55:00.905Z,2.80
2022-08-12T07:57:27.750Z,3.00
2022-08-12T07:59:55.930Z,2.92
2022-08-12T08:02:26.689Z,2.85
2022-08-12T08:04:57.585Z,2.65
2022-08-12T08:07:29.688Z,2.80
2022-08-12T08:09:59.464Z,3.50
2022-08-12T08:12:48.838Z,2.80
2022-08-12T08:15:16.060Z,2.85
2022-08-12T08:17:57.950Z,2.90
2022-08-12T08:20:28.649Z,2.88
2022-08-12T08:22:57.302Z,2.63
2022-08-12T08:25:36.403Z,2.70
2022-08-12T08:28:09.591Z,2.83
2022-08-12T08:30:39.060Z,2.63
2022-08-12T08:33:22.896Z,2.70
2022-08-12T08:35:55.797Z,2.55
2022-08-12T08:38:32.729Z,2.80
2022-08-12T08:42:16.727Z,2.80
2022-08-12T08:44:11.294Z,3.00
2022-08-12T08:46:39.644Z,2.85
2022-08-12T08:49:08.582Z,3.10
2022-08-12T08:51:35.421Z,2.72
2022-08-12T08:54:02.460Z,2.90
2022-08-12T08:56:31.915Z,3.00
2022-08-12T08:58:59.263Z,2.70
2022-08-12T09:01:26.656Z,2.90
2022-08-12T09:05:08.389Z,2.90
2022-08-12T09:06:55.968Z,3.20
2022-08-12T09:09:23.313Z,3.05
2022-08-12T09:12:11.778Z,2.78
2022-08-12T09:17:42.077Z,2.90
2022-08-12T09:20:15.236Z,2.90
2022-08-12T09:22:43.064Z,3.05
2022-08-12T09:25:25.677Z,3.00
2022-08-12T09:28:03.682Z,3.03
2022-08-12T09:30:42.048Z,3.08
2022-08-12T09:33:18.311Z,3.00
2022-08-12T09:35:46.909Z,3.20
2022-08-12T09:38:32.117Z,3.67
2022-08-12T09:42:09.551Z,3.00
2022-08-12T09:44:06.107Z,3.00
2022-08-12T09:46:34.466Z,4.35
2022-08-12T09:49:01.677Z,3.10
2022-08-12T09:51:38.078Z,3.30
2022-08-12T09:54:33.597Z,3.33
2022-08-12T09:58:07.671Z,3.30
2022-08-12T10:00:15.278Z,3.10
2022-08-12T10:02:53.020Z,3.00
2022-08-12T10:05:22.780Z,2.85
2022-08-12T10:08:10.658Z,2.42
2022-08-12T10:11:01.059Z,3.20
2022-08-12T10:13:44.593Z,3.13
2022-08-12T10:16:22.434Z,3.30
2022-08-12T10:18:59.813Z,3.20
2022-08-12T10:21:37.773Z,3.60
2022-08-12T10:24:07.125Z,3.33
2022-08-12T10:26:54.895Z,2.90
2022-08-12T10:30:37.438Z,3.10
2022-08-12T10:35:15.695Z,2.67
2022-08-12T10:38:38.853Z,3.50
2022-08-12T10:40:33.032Z,3.55
2022-08-12T10:43:19.725Z,3.70
2022-08-12T10:45:49.150Z,3.45
2022-08-12T10:48:23.062Z,3.13
2022-08-12T10:50:56.624Z,3.15
2022-08-12T10:53:45.068Z,3.58
2022-08-12T10:56:18.049Z,3.22
2022-08-12T10:58:46.978Z,3.35
2022-08-12T11:01:25.759Z,3.22
2022-08-12T11:04:22.848Z,3.72
2022-08-12T11:07:08.564Z,3.30
2022-08-12T11:09:54.413Z,3.00
2022-08-12T11:12:55.743Z,3.15
2022-08-12T11:15:18.479Z,3.10
2022-08-12T11:17:54.081Z,3.30
2022-08-12T11:20:30.834Z,3.35
2022-08-12T11:23:26.061Z,3.40
2022-08-12T11:25:56.743Z,2.92
2022-08-12T11:28:33.371Z,3.03
2022-08-12T11:31:02.075Z,3.22
2022-08-12T11:34:04.285Z,3.45
2022-08-12T11:36:15.702Z,3.33
2022-08-12T11:38:42.415Z,2.88
2022-08-12T11:41:09.964Z,3.30
2022-08-12T11:43:50.596Z,3.53
2022-08-12T11:46:22.990Z,3.50
2022-08-12T11:48:52.165Z,3.63
2022-08-12T11:51:20.735Z,3.55
2022-08-12T11:53:59.482Z,3.47
2022-08-12T11:56:38.748Z,3.38
2022-08-12T12:02:03.158Z,3.35
2022-08-12T12:04:32.050Z,3.58
2022-08-12T12:07:07.377Z,3.20
2022-08-12T12:09:51.973Z,3.50
2022-08-12T12:12:21.599Z,3.38
2022-08-12T12:14:54.888Z,3.17
2022-08-12T12:17:26.114Z,3.45
2022-08-12T12:19:53.862Z,3.50
2022-08-12T12:22:26.912Z,3.35
2022-08-12T12:24:58.001Z,3.60
2022-08-12T12:28:03.866Z,3.58
2022-08-12T12:30:17.533Z,3.15
2022-08-12T12:32:53.273Z,3.30
2022-08-12T12:36:16.412Z,3.58
2022-08-12T12:38:12.830Z,3.65
2022-08-12T12:40:50.240Z,3.47
2022-08-12T12:43:28.837Z,3.30
2022-08-12T12:46:06.100Z,3.50
2022-08-12T12:48:33.164Z,3.13
2022-08-12T12:51:22.260Z,3.40
2022-08-12T12:54:07.152Z,3.30
2022-08-12T12:56:40.666Z,3.58
2022-08-12T12:59:56.478Z,3.65
2022-08-12T13:01:59.321Z,3.83
2022-08-12T13:04:27.574Z,3.63
2022-08-12T13:07:01.438Z,3.08
2022-08-12T13:09:28.478Z,3.47
2022-08-12T13:12:04.073Z,3.37
2022-08-12T13:14:31.672Z,3.50
2022-08-12T13:17:02.802Z,3.35
2022-08-12T13:19:38.794Z,3.40
2022-08-12T13:22:21.373Z,3.55
2022-08-12T13:24:55.702Z,3.45
2022-08-12T13:27:46.301Z,3.40
2022-08-12T13:30:23.768Z,3.20
2022-08-12T13:32:56.747Z,3.60
2022-08-12T13:36:02.774Z,3.20
2022-08-12T13:38:34.146Z,3.40
2022-08-12T13:41:04.184Z,2.60
2022-08-12T13:43:40.831Z,3.42
2022-08-12T13:46:14.264Z,3.50
2022-08-12T13:48:45.212Z,3.47
2022-08-12T13:51:13.327Z,3.70
2022-08-12T13:53:59.156Z,4.00
2022-08-12T13:56:30.548Z,3.83
2022-08-12T13:59:08.117Z,3.80
2022-08-12T14:01:35.791Z,3.58
2022-08-12T14:04:11.667Z,3.80
2022-08-12T14:06:39.464Z,3.63
2022-08-12T14:09:18.047Z,4.15
2022-08-12T14:11:59.103Z,3.80
2022-08-12T14:14:27.890Z,4.10
2022-08-12T14:16:58.325Z,3.65
2022-08-12T14:19:26.500Z,3.80
2022-08-12T14:22:01.246Z,3.42
2022-08-12T14:24:35.539Z,4.00
2022-08-12T14:27:09.312Z,3.88
2022-08-12T14:29:38.095Z,3.60
2022-08-12T14:32:23.851Z,3.78
2022-08-12T14:34:51.818Z,3.60
2022-08-12T14:37:54.912Z,3.58
2022-08-12T14:40:06.081Z,4.28
2022-08-12T14:42:32.659Z,4.00
2022-08-12T14:45:01.500Z,3.95
2022-08-12T14:47:35.325Z,4.05
2022-08-12T14:50:37.641Z,3.80
2022-08-12T14:58:25.512Z,3.92
2022-08-12T15:01:11.429Z,3.60
2022-08-12T15:03:57.122Z,3.40
2022-08-12T15:06:44.600Z,4.00
2022-08-12T15:09:15.953Z,4.00
2022-08-12T15:11:48.765Z,4.15
2022-08-12T15:20:28.028Z,3.50
2022-08-12T15:22:53.767Z,2.90
2022-08-12T15:25:21.138Z,3.45
2022-08-12T15:28:04.482Z,3.60
2022-08-12T15:30:42.626Z,3.97
2022-08-12T15:33:12.886Z,4.00
2022-08-12T15:35:53.128Z,3.90
2022-08-12T15:38:24.629Z,4.38
2022-08-12T15:40:54.750Z,3.92
2022-08-12T15:43:56.967Z,3.70
2022-08-12T15:46:15.746Z,4.28
2022-08-12T15:48:46.506Z,4.72
2022-08-12T15:51:59.841Z,3.67
2022-08-12T15:54:33.744Z,3.72
2022-08-12T15:57:05.870Z,4.07
2022-08-12T16:00:00.351Z,4.13
2022-08-12T16:02:22.862Z,4.30
2022-08-12T16:04:53.423Z,4.25
2022-08-12T16:07:26.146Z,3.60
2022-08-12T16:10:05.032Z,3.30
2022-08-12T16:12:37.217Z,4.40
2022-08-12T16:15:06.880Z,4.32
2022-08-12T16:18:15.230Z,4.50
2022-08-12T16:20:33.226Z,3.85
2022-08-12T16:23:21.436Z,4.53
2022-08-12T16:26:05.306Z,4.47
2022-08-12T16:28:33.724Z,4.35
2022-08-12T16:31:00.621Z,4.75
2022-08-12T16:33:58.978Z,4.50
2022-08-12T16:36:25.422Z,4.55
2022-08-12T16:38:52.222Z,4.80
2022-08-12T16:41:18.825Z,4.60
2022-08-12T16:43:46.698Z,4.45
2022-08-12T16:46:31.979Z,4.55
2022-08-12T16:49:09.391Z,4.47
2022-08-12T16:51:46.490Z,4.13
2022-08-12T16:54:15.997Z,4.30
2022-08-12T16:56:54.801Z,4.72
2022-08-12T16:59:26.017Z,4.20
2022-08-12T17:01:57.617Z,3.95
2022-08-12T17:04:25.209Z,4.45
2022-08-12T17:06:52.676Z,4.15
2022-08-12T17:09:19.363Z,4.50
2022-08-12T17:11:49.275Z,4.43
2022-08-12T17:14:17.166Z,4.38
2022-08-12T17:16:48.432Z,4.53
2022-08-12T17:19:16.923Z,4.30
2022-08-12T17:22:01.349Z,4.35
2022-08-12T17:24:32.624Z,4.30
2022-08-12T17:27:15.725Z,4.38
2022-08-12T17:30:03.074Z,4.15
2022-08-12T17:32:32.847Z,4.68
2022-08-12T17:35:18.490Z,4.20
2022-08-12T17:37:48.418Z,4.28
2022-08-12T17:40:34.530Z,4.20
2022-08-12T17:43:57.239Z,4.40
2022-08-12T17:45:56.170Z,4.10
2022-08-12T17:48:34.609Z,4.20
2022-08-12T17:51:06.868Z,4.43
2022-08-12T17:54:05.510Z,3.80
2022-08-12T17:56:27.927Z,4.40
2022-08-12T17:59:00.449Z,4.43
2022-08-12T18:01:28.915Z,4.35
2022-08-12T18:04:20.935Z,4.50
2022-08-12T18:06:50.422Z,4.22
2022-08-12T18:09:18.047Z,4.25
2022-08-12T18:12:07.798Z,4.38
2022-08-12T18:14:36.972Z,4.10
2022-08-12T18:17:08.496Z,4.57
2022-08-12T18:20:05.480Z,4.65
2022-08-12T18:22:30.818Z,4.43
2022-08-12T18:25:04.266Z,4.82
2022-08-12T18:27:44.427Z,4.30
2022-08-12T18:30:16.287Z,4.38
2022-08-12T18:32:58.751Z,4.80
2022-08-12T18:35:34.521Z,4.70
2022-08-12T18:38:17.438Z,4.82
2022-08-12T18:41:06.014Z,5.10
2022-08-12T18:43:38.118Z,5.45
2022-08-12T18:46:27.508Z,5.57
2022-08-12T18:49:17.038Z,5.82
2022-08-12T18:51:55.605Z,6.05
2022-08-12T18:54:35.007Z,6.40
2022-08-12T18:57:16.512Z,5.80
2022-08-12T19:00:02.130Z,5.13
2022-08-12T19:02:36.251Z,5.60
2022-08-12T19:05:11.093Z,5.22
2022-08-12T19:07:49.605Z,5.63
2022-08-12T19:10:20.530Z,5.10
2022-08-12T19:13:08.993Z,5.22
2022-08-12T19:15:43.092Z,4.93
2022-08-12T19:18:11.051Z,5.60
2022-08-12T19:20:39.386Z,5.32
2022-08-12T19:23:08.190Z,5.63
2022-08-12T19:26:00.112Z,5.97
2022-08-12T19:28:35.311Z,5.78
2022-08-12T19:31:55.490Z,5.50
2022-08-12T19:37:38.497Z,6.13
2022-08-12T19:40:20.151Z,5.70
2022-08-12T19:43:01.440Z,5.63
2022-08-12T19:45:43.829Z,5.63
2022-08-12T19:48:18.748Z,5.65
2022-08-12T19:50:49.926Z,6.20
2022-08-12T19:53:19.918Z,5.90
2022-08-12T19:55:50.833Z,6.05
2022-08-12T19:58:19.535Z,6.30
2022-08-12T20:00:52.732Z,6.03
2022-08-12T20:03:38.252Z,6.68
2022-08-12T20:06:13.833Z,6.03
2022-08-12T20:08:48.614Z,6.50
2022-08-12T20:12:11.564Z,6.82
2022-08-12T20:14:04.586Z,6.05
2022-08-12T20:19:52.981Z,6.82
2022-08-12T20:22:16.751Z,6.70
2022-08-12T20:24:55.406Z,6.22
2022-08-12T20:27:29.256Z,6.47
2022-08-12T20:30:13.608Z,6.07
2022-08-12T20:32:58.664Z,6.43
2022-08-12T20:35:39.026Z,7.03
2022-08-12T20:38:26.713Z,6.78
2022-08-12T20:40:55.642Z,6.78
2022-08-12T20:43:28.083Z,6.85
2022-08-12T20:45:58.711Z,6.90
2022-08-12T20:48:29.446Z,7.05
2022-08-12T20:51:04.399Z,6.72
2022-08-12T20:53:53.980Z,7.57
2022-08-12T20:56:31.135Z,7.22
2022-08-12T20:59:00.064Z,6.97
2022-08-12T21:01:29.188Z,7.05
2022-08-12T21:04:32.793Z,8.05
2022-08-12T21:07:04.459Z,6.73
2022-08-12T21:09:47.609Z,7.53
2022-08-12T21:12:31.222Z,6.90
2022-08-12T21:15:18.035Z,7.65
2022-08-12T21:18:09.769Z,7.05
2022-08-12T21:20:52.734Z,6.93
2022-08-12T21:23:21.670Z,7.20
2022-08-12T21:25:49.295Z,7.20
2022-08-12T21:28:20.571Z,7.75
2022-08-12T21:31:11.039Z,7.43
2022-08-12T21:34:06.190Z,6.88
2022-08-12T21:36:34.516Z,7.32
2022-08-12T21:39:18.166Z,7.45
2022-08-12T21:41:50.252Z,7.28
2022-08-12T21:44:24.150Z,7.72
2022-08-12T21:47:19.674Z,8.02
2022-08-12T21:49:55.280Z,6.93
2022-08-12T21:52:28.114Z,7.85
2022-08-12T21:55:01.472Z,7.60
2022-08-12T21:57:30.374Z,7.28
2022-08-12T22:00:05.960Z,7.38
2022-08-12T22:03:02.600Z,7.20
2022-08-12T22:05:47.715Z,7.90
2022-08-12T22:08:17.096Z,7.97
2022-08-12T22:10:52.288Z,7.60
2022-08-12T22:14:03.064Z,7.97
2022-08-12T22:16:07.838Z,8.25
2022-08-12T22:18:34.509Z,7.68
2022-08-12T22:21:01.019Z,7.70
2022-08-12T22:23:51.200Z,7.70
2022-08-12T22:26:15.961Z,7.72
2022-08-12T22:29:17.096Z,9.07
2022-08-12T22:31:43.991Z,7.90
2022-08-12T22:34:18.331Z,7.80
2022-08-12T22:36:45.594Z,7.35
2022-08-12T22:39:15.837Z,7.10
2022-08-12T22:42:01.698Z,7.88
2022-08-12T22:44:54.404Z,7.55
2022-08-12T22:47:54.492Z,7.72
2022-08-12T22:50:28.325Z,8.13
2022-08-12T22:53:15.504Z,8.30
2022-08-12T22:55:59.876Z,8.90
2022-08-12T22:58:35.743Z,8.07
2022-08-12T23:01:03.446Z,7.40
2022-08-12T23:03:49.508Z,8.93
2022-08-12T23:06:23.753Z,7.90
2022-08-12T23:08:51.244Z,8.15
2022-08-12T23:11:23.310Z,7.63
2022-08-12T23:14:01.940Z,8.30
2022-08-12T23:16:34.112Z,8.52
2022-08-12T23:19:10.980Z,8.05
2022-08-12T23:22:06.602Z,9.02
2022-08-12T23:24:56.406Z,7.93
2022-08-12T23:27:51.957Z,9.30
2022-08-12T23:30:24.637Z,8.50
2022-08-12T23:32:53.996Z,8.35
2022-08-12T23:35:22.664Z,8.55
2022-08-12T23:37:53.751Z,8.88
2022-08-12T23:40:24.611Z,8.90
2022-08-12T23:42:55.207Z,8.48
2022-08-12T23:45:31.092Z,8.25
2022-08-12T23:48:00.671Z,9.23
2022-08-12T23:50:34.139Z,8.85
2022-08-12T23:53:05.570Z,9.18
2022-08-12T23:55:35.984Z,8.65
2022-08-12T23:58:21.727Z,8.67
